LiveATC.Net - Listen to live air traffic control over the Internet!


ICAO: LSGG  IATA: GVA   Airport: Geneve-Cointrin International Airport
City: Geneva
Country: Switzerland   Continent: Europe
LSGG METAR Weather: LSGG 171550Z 22004KT 170V250 9999 -RA FEW030 SCT065 BKN080 15/13 Q1016 NOSIG
LSGG Flight Activity (FlightAware)
LSGG Webcam:  (Airport Webcams) 

LSGG Tower
Feed Status: UP   Listeners: 2
Listen in your browser - HTML5 player (in browser, HTML5)
Click here to listen with your own player (launches your MP3 player)
LSGG Tower Audio Archives
FacilityFrequency
Geneva Tower118.700

NOTICE

Unauthorized use prohibited. See LiveATC.net Terms of Service


Airport/ARTCC Code
Frequency Search
(e.g., 124.400, 128.75)
Site-wide search
 


Browse LiveATC Feeds
Top 50 LiveATC Feeds
LiveATC Feed Map
Bad Weather Areas

LiveATC FAQ
Offer LiveATC feed
Contact LiveATC.net
Press Inquiries

LiveATC on iPhone
LiveATC on Android

Windows Phone
Windows 8/10

LiveATC Mobile
(Mobile browser)

ATC Audio Archives
Interesting Recordings

LiveATC Forums


Home Page
About LiveATC.net
Make a Donation
Terms of Use
Privacy Policy

Canadian Air Freqs

AIRMETs/SIGMETs

FAA Airport Status
Nat'l Airspace Status
Arrival Demand Charts


Server Software By:
Icecast.org
Liquidsoap